Time;durP1;ratioP1;P1;durP2;ratioP2;P2;SDS_P1;SDS_P2;PMS_P1;PMS_P2;Temp;Humidity;BMP_temperature;BMP_pressure;BME280_temperature;BME280_humidity;BME280_pressure;Samples;Min_cycle;Max_cycle;Signal;HPM_P1;HPM_P2
2021/05/01 00:01:05;;;;;;;15.95;12.55;;;15.20;67.20;;;;;;5131733;27;20028;-68
2021/05/01 00:03:31;;;;;;;12.27;10.27;;;15.10;66.60;;;;;;5122881;27;20403;-68
2021/05/01 00:05:57;;;;;;;17.75;11.80;;;15.10;66.70;;;;;;5115959;28;20042;-68
2021/05/01 00:08:23;;;;;;;12.80;10.63;;;15.10;66.70;;;;;;5116550;27;20016;-67
2021/05/01 00:10:49;;;;;;;15.77;12.18;;;15.10;66.90;;;;;;5134710;27;20474;-68
2021/05/01 00:13:16;;;;;;;16.55;12.90;;;15.10;67.00;;;;;;5130549;27;20030;-67
2021/05/01 00:15:41;;;;;;;14.77;10.93;;;15.00;66.80;;;;;;5125230;27;20015;-67
2021/05/01 00:18:07;;;;;;;20.75;12.73;;;15.00;66.90;;;;;;5135945;27;20045;-67
2021/05/01 00:20:33;;;;;;;14.90;11.10;;;15.00;66.80;;;;;;5135874;27;20024;-67
2021/05/01 00:22:59;;;;;;;12.50;9.68;;;15.00;66.90;;;;;;5135293;27;20499;-67
2021/05/01 00:25:24;;;;;;;15.77;11.90;;;15.10;67.10;;;;;;5135973;27;20469;-67
2021/05/01 00:27:50;;;;;;;15.52;12.05;;;15.10;67.10;;;;;;5135567;27;20054;-67
2021/05/01 00:30:16;;;;;;;18.30;12.82;;;15.10;67.00;;;;;;5135301;27;20022;-67
2021/05/01 00:32:42;;;;;;;15.38;12.50;;;15.20;66.70;;;;;;5134379;27;20023;-67
2021/05/01 00:35:09;;;;;;;18.40;11.88;;;15.20;66.50;;;;;;5135659;27;20023;-67
2021/05/01 00:37:36;;;;;;;11.82;10.23;;;15.20;66.20;;;;;;5135844;27;20028;-67
2021/05/01 00:40:04;;;;;;;15.63;12.15;;;15.20;66.40;;;;;;5135835;27;20353;-67
2021/05/01 00:42:30;;;;;;;15.63;13.25;;;15.30;66.60;;;;;;5135740;27;20102;-67
2021/05/01 00:44:56;;;;;;;17.73;12.82;;;15.30;67.30;;;;;;5134841;27;20170;-68
2021/05/01 00:47:21;;;;;;;15.88;12.63;;;15.40;66.30;;;;;;5135298;27;20038;-67
2021/05/01 00:49:47;;;;;;;17.85;13.73;;;15.40;66.40;;;;;;5135525;27;20027;-67
2021/05/01 00:52:13;;;;;;;17.70;12.40;;;15.40;66.20;;;;;;5134054;27;20058;-67
2021/05/01 00:54:39;;;;;;;22.33;15.75;;;15.40;65.90;;;;;;5126538;27;20503;-67
2021/05/01 00:57:05;;;;;;;24.27;17.25;;;15.40;65.80;;;;;;5135443;27;20503;-67
2021/05/01 00:59:31;;;;;;;21.58;17.25;;;15.40;64.80;;;;;;5135451;27;20031;-68
2021/05/01 01:01:58;;;;;;;20.27;15.52;;;15.30;64.40;;;;;;5124586;27;20024;-67
2021/05/01 01:04:24;;;;;;;19.77;15.35;;;15.30;64.30;;;;;;5127262;27;20076;-67
2021/05/01 01:06:49;;;;;;;18.23;14.32;;;15.30;64.20;;;;;;5135144;27;20539;-67
2021/05/01 01:09:15;;;;;;;20.77;16.92;;;15.30;64.60;;;;;;5135076;27;20094;-67
2021/05/01 01:11:42;;;;;;;22.33;16.08;;;15.30;64.20;;;;;;5133951;27;20019;-67
2021/05/01 01:14:11;;;;;;;18.63;15.10;;;15.30;64.20;;;;;;5123292;27;20077;-67
2021/05/01 01:16:37;;;;;;;19.30;14.95;;;15.30;64.20;;;;;;5121978;27;20100;-67
2021/05/01 01:19:03;;;;;;;20.25;16.73;;;15.30;63.90;;;;;;5134596;27;20031;-67
2021/05/01 01:21:29;;;;;;;25.63;17.83;;;15.30;64.00;;;;;;5134619;27;20027;-67
2021/05/01 01:23:54;;;;;;;21.25;17.23;;;15.30;63.80;;;;;;5126142;27;20499;-67
2021/05/01 01:26:21;;;;;;;31.52;22.55;;;15.20;63.40;;;;;;5114194;28;20500;-67
2021/05/01 01:28:47;;;;;;;26.63;20.58;;;15.20;63.90;;;;;;5114010;28;20045;-65
2021/05/01 01:31:14;;;;;;;23.85;18.77;;;15.20;63.50;;;;;;5112686;28;20069;-69
2021/05/01 01:33:40;;;;;;;24.52;19.05;;;15.20;63.60;;;;;;5114032;28;20019;-69
2021/05/01 01:36:07;;;;;;;23.27;18.80;;;15.20;63.60;;;;;;5119406;27;20054;-69
2021/05/01 01:38:33;;;;;;;20.88;16.60;;;15.20;63.60;;;;;;5133152;27;20049;-69
2021/05/01 01:41:02;;;;;;;21.20;16.15;;;15.20;64.00;;;;;;5134277;27;20029;-69
2021/05/01 01:43:29;;;;;;;23.08;18.83;;;15.20;64.10;;;;;;5134214;27;20022;-68
2021/05/01 01:45:54;;;;;;;23.98;20.45;;;15.20;64.00;;;;;;5133868;27;20023;-69
2021/05/01 01:48:20;;;;;;;22.45;18.35;;;15.20;63.60;;;;;;5134090;27;20011;-68
2021/05/01 01:50:46;;;;;;;18.63;16.33;;;15.20;63.90;;;;;;5134019;27;20016;-69
2021/05/01 01:53:12;;;;;;;23.42;19.05;;;15.20;64.00;;;;;;5126493;27;20046;-69
2021/05/01 01:55:38;;;;;;;26.38;18.63;;;15.20;64.20;;;;;;5120854;27;20091;-64
2021/05/01 01:58:04;;;;;;;20.60;17.30;;;15.20;64.10;;;;;;5133820;27;20472;-65
2021/05/01 02:00:31;;;;;;;24.00;18.83;;;15.20;64.00;;;;;;5133938;27;20472;-65
2021/05/01 02:02:57;;;;;;;20.92;17.70;;;15.20;63.60;;;;;;5130799;27;20519;-65
2021/05/01 02:05:23;;;;;;;21.55;17.83;;;15.20;63.90;;;;;;5133742;27;20042;-65
2021/05/01 02:07:49;;;;;;;23.05;18.42;;;15.30;64.10;;;;;;5132301;27;20080;-65
2021/05/01 02:10:16;;;;;;;23.60;19.15;;;15.30;63.60;;;;;;5133674;27;20031;-65
2021/05/01 02:12:43;;;;;;;26.45;21.33;;;15.30;63.60;;;;;;5133250;27;20487;-65
2021/05/01 02:15:13;;;;;;;21.20;18.20;;;15.30;63.50;;;;;;5133423;27;20045;-66
2021/05/01 02:17:41;;;;;;;29.92;21.27;;;15.30;63.20;;;;;;5133577;27;20072;-66
2021/05/01 02:20:08;;;;;;;24.92;20.38;;;15.20;63.60;;;;;;5133487;27;20019;-66
2021/05/01 02:22:35;;;;;;;21.58;17.98;;;15.20;63.30;;;;;;5133507;27;20110;-66
2021/05/01 02:25:01;;;;;;;23.10;19.38;;;15.20;63.20;;;;;;5133514;27;20045;-66
2021/05/01 02:27:26;;;;;;;26.20;19.00;;;15.20;63.50;;;;;;5133440;27;20445;-66
2021/05/01 02:29:52;;;;;;;24.70;21.20;;;15.20;63.80;;;;;;5133565;27;20020;-65
2021/05/01 02:32:18;;;;;;;23.88;19.88;;;15.20;63.60;;;;;;5133327;27;20026;-66
2021/05/01 02:34:44;;;;;;;25.17;20.90;;;15.20;63.30;;;;;;5133486;27;20093;-66
2021/05/01 02:37:10;;;;;;;23.45;19.70;;;15.20;63.40;;;;;;5133179;27;20079;-66
2021/05/01 02:39:36;;;;;;;24.25;18.80;;;15.20;63.40;;;;;;5133231;27;20031;-65
2021/05/01 02:42:02;;;;;;;22.15;18.63;;;15.20;63.20;;;;;;5131386;27;20027;-66
2021/05/01 02:44:28;;;;;;;25.65;20.67;;;15.20;63.40;;;;;;5133104;27;20030;-66
2021/05/01 02:46:54;;;;;;;25.50;21.15;;;15.20;63.10;;;;;;5133119;27;20112;-66
2021/05/01 02:49:19;;;;;;;22.80;19.63;;;15.20;63.00;;;;;;5132803;27;20075;-66
2021/05/01 02:51:45;;;;;;;29.02;22.98;;;15.20;62.50;;;;;;5125192;27;20358;-66
2021/05/01 02:54:11;;;;;;;22.85;19.77;;;15.20;62.70;;;;;;5112455;28;20069;-66
2021/05/01 02:56:36;;;;;;;24.92;20.38;;;15.10;62.60;;;;;;5112720;28;20519;-65
2021/05/01 02:59:02;;;;;;;25.25;21.00;;;15.10;62.90;;;;;;5112610;28;20028;-66
2021/05/01 03:01:28;;;;;;;22.42;20.02;;;15.10;63.10;;;;;;5118902;28;20023;-66
2021/05/01 03:03:54;;;;;;;25.45;21.08;;;15.10;63.50;;;;;;5133038;27;20031;-65
2021/05/01 03:06:19;;;;;;;24.27;18.50;;;15.10;63.50;;;;;;5133011;28;20031;-66
2021/05/01 03:08:45;;;;;;;26.83;19.17;;;15.20;63.70;;;;;;5132995;28;20024;-66
2021/05/01 03:11:11;;;;;;;25.02;20.52;;;15.20;63.60;;;;;;5132705;28;20376;-66
2021/05/01 03:13:37;;;;;;;23.40;19.77;;;15.20;63.50;;;;;;5132940;27;20023;-65
2021/05/01 03:16:03;;;;;;;25.60;21.25;;;15.20;63.30;;;;;;5132903;27;20024;-65
2021/05/01 03:18:29;;;;;;;24.60;20.98;;;15.20;62.90;;;;;;5132965;27;20776;-66
2021/05/01 03:20:55;;;;;;;24.75;19.92;;;15.20;63.00;;;;;;5132808;27;20264;-65
2021/05/01 03:23:21;;;;;;;29.35;24.83;;;15.20;62.90;;;;;;5132898;27;20023;-66
2021/05/01 03:25:47;;;;;;;25.85;22.08;;;15.20;62.50;;;;;;5132794;27;20023;-66
2021/05/01 03:28:13;;;;;;;24.27;20.10;;;15.20;62.40;;;;;;5132832;27;20020;-66
2021/05/01 03:30:39;;;;;;;30.15;22.73;;;15.10;62.40;;;;;;5132868;27;20495;-66
2021/05/01 03:33:05;;;;;;;26.25;21.70;;;15.10;62.20;;;;;;5132846;27;20035;-66
2021/05/01 03:35:30;;;;;;;27.00;21.80;;;15.10;62.10;;;;;;5132871;27;20020;-66
2021/05/01 03:37:56;;;;;;;22.30;19.38;;;15.10;62.20;;;;;;5132914;27;20027;-65
2021/05/01 03:40:22;;;;;;;23.23;19.27;;;15.10;62.50;;;;;;5132679;27;20477;-65
2021/05/01 03:42:48;;;;;;;22.50;18.80;;;15.00;62.70;;;;;;5132244;27;20023;-66
2021/05/01 03:45:14;;;;;;;24.73;19.95;;;15.10;63.00;;;;;;5132722;27;20024;-66
2021/05/01 03:47:40;;;;;;;24.60;20.55;;;15.10;63.10;;;;;;5132628;27;20028;-67
2021/05/01 03:50:07;;;;;;;25.20;21.45;;;15.10;63.30;;;;;;5131443;27;20448;-66
2021/05/01 03:52:34;;;;;;;26.80;22.52;;;15.10;63.30;;;;;;5132602;27;20042;-65
2021/05/01 03:55:00;;;;;;;24.48;20.35;;;15.10;62.80;;;;;;5132646;27;20023;-66
2021/05/01 03:57:26;;;;;;;24.30;19.60;;;15.10;62.80;;;;;;5131315;28;20033;-67
2021/05/01 03:59:51;;;;;;;26.63;21.02;;;15.20;62.90;;;;;;5132570;27;20080;-67
2021/05/01 04:02:18;;;;;;;26.73;21.60;;;15.10;62.80;;;;;;5132403;27;20051;-67
2021/05/01 04:04:44;;;;;;;30.58;22.13;;;15.10;63.10;;;;;;5134802;27;20531;-67
2021/05/01 04:07:10;;;;;;;29.75;20.85;;;15.20;63.30;;;;;;5136248;27;20030;-66
2021/05/01 04:09:36;;;;;;;26.80;21.55;;;15.20;63.30;;;;;;5136292;27;20383;-66
2021/05/01 04:12:01;;;;;;;27.77;23.05;;;15.20;63.20;;;;;;5135542;27;20544;-65
2021/05/01 04:14:27;;;;;;;25.23;21.75;;;15.20;63.50;;;;;;5136035;27;20048;-66
2021/05/01 04:16:53;;;;;;;30.40;24.85;;;15.20;63.20;;;;;;5135920;27;20066;-66
2021/05/01 04:19:19;;;;;;;29.77;23.42;;;15.20;63.10;;;;;;5134614;27;20115;-66
2021/05/01 04:21:45;;;;;;;29.02;23.13;;;15.20;62.70;;;;;;5136098;27;20031;-66
2021/05/01 04:24:10;;;;;;;30.13;24.38;;;15.20;63.00;;;;;;5135915;27;20019;-66
2021/05/01 04:26:36;;;;;;;33.78;26.98;;;15.20;62.60;;;;;;5135915;27;20489;-67
2021/05/01 04:29:02;;;;;;;32.03;24.92;;;15.20;62.10;;;;;;5135958;27;20038;-67
2021/05/01 04:31:28;;;;;;;27.63;23.05;;;15.20;62.10;;;;;;5135800;27;20034;-67
2021/05/01 04:33:54;;;;;;;24.38;20.83;;;15.10;62.20;;;;;;5135886;27;20019;-66
2021/05/01 04:36:20;;;;;;;33.30;25.55;;;15.10;62.60;;;;;;5135739;27;20030;-67
2021/05/01 04:38:46;;;;;;;32.10;25.45;;;15.10;61.90;;;;;;5135814;27;20020;-66
2021/05/01 04:41:12;;;;;;;29.52;23.55;;;15.10;62.10;;;;;;5135367;27;20054;-67
2021/05/01 04:43:40;;;;;;;26.00;21.52;;;15.10;62.40;;;;;;5135686;27;20034;-66
2021/05/01 04:46:06;;;;;;;32.90;25.58;;;15.10;62.60;;;;;;5135474;27;20590;-66
2021/05/01 04:48:31;;;;;;;29.58;23.17;;;15.10;62.60;;;;;;5135505;27;20090;-67
2021/05/01 04:50:57;;;;;;;28.45;22.98;;;15.10;62.30;;;;;;5122018;27;20111;-66
2021/05/01 04:53:24;;;;;;;32.33;26.50;;;15.10;62.50;;;;;;5114624;28;20489;-67
2021/05/01 04:55:49;;;;;;;30.92;25.00;;;15.20;62.80;;;;;;5114828;28;20357;-67
2021/05/01 04:58:15;;;;;;;29.13;24.38;;;15.20;62.30;;;;;;5114680;28;20024;-67
2021/05/01 05:00:41;;;;;;;32.45;23.73;;;15.20;62.40;;;;;;5114605;28;20027;-67
2021/05/01 05:03:09;;;;;;;28.60;23.65;;;15.20;62.20;;;;;;5114624;28;20590;-67
2021/05/01 05:05:34;;;;;;;32.20;26.75;;;15.20;62.10;;;;;;5114481;28;20019;-66
2021/05/01 05:08:00;;;;;;;31.13;25.38;;;15.20;62.10;;;;;;5114618;28;20419;-66
2021/05/01 05:10:26;;;;;;;29.20;23.85;;;15.20;62.20;;;;;;5115800;27;20027;-66
2021/05/01 05:12:52;;;;;;;27.67;22.80;;;15.10;61.90;;;;;;5134620;27;20092;-67
2021/05/01 05:15:17;;;;;;;31.95;24.80;;;15.20;62.60;;;;;;5134670;27;20434;-66
2021/05/01 05:17:43;;;;;;;27.52;22.40;;;15.20;62.60;;;;;;5133730;27;20027;-67
2021/05/01 05:20:10;;;;;;;33.95;24.90;;;15.20;62.70;;;;;;5133660;27;20037;-67
2021/05/01 05:22:36;;;;;;;29.73;23.40;;;15.30;62.60;;;;;;5135033;27;20031;-67
2021/05/01 05:25:02;;;;;;;30.38;23.88;;;15.40;62.80;;;;;;5132993;27;20023;-66
2021/05/01 05:27:28;;;;;;;28.77;23.67;;;15.40;62.60;;;;;;5133887;27;20034;-66
2021/05/01 05:29:54;;;;;;;30.05;24.23;;;15.40;62.50;;;;;;5134568;27;20468;-67
2021/05/01 05:32:21;;;;;;;30.80;24.15;;;15.50;62.30;;;;;;5134622;27;20466;-67
2021/05/01 05:34:48;;;;;;;27.50;22.92;;;15.60;62.50;;;;;;5134691;27;20031;-67
2021/05/01 05:37:14;;;;;;;27.50;22.58;;;15.60;62.90;;;;;;5134727;27;20050;-67
2021/05/01 05:39:41;;;;;;;29.50;24.25;;;15.70;62.80;;;;;;5134530;27;20019;-66
2021/05/01 05:42:08;;;;;;;32.53;24.02;;;15.80;62.30;;;;;;5134163;27;20431;-67
2021/05/01 05:44:34;;;;;;;32.65;24.40;;;15.80;61.70;;;;;;5134555;27;20034;-67
2021/05/01 05:47:01;;;;;;;27.92;23.05;;;15.80;61.80;;;;;;5134322;27;20023;-67
2021/05/01 05:49:27;;;;;;;32.38;25.65;;;15.90;61.80;;;;;;5133797;27;20033;-68
2021/05/01 05:51:53;;;;;;;29.70;23.63;;;15.90;61.10;;;;;;5112269;28;20040;-67
2021/05/01 05:54:19;;;;;;;31.80;22.98;;;16.00;61.40;;;;;;5112608;28;20054;-67
2021/05/01 05:56:45;;;;;;;30.63;23.35;;;16.10;61.40;;;;;;5113591;27;20055;-67
2021/05/01 05:59:10;;;;;;;29.77;23.90;;;16.10;61.50;;;;;;5113640;28;20106;-67
2021/05/01 06:01:43;;;;;;;30.02;23.85;;;16.10;60.40;;;;;;5113529;28;20024;-67
2021/05/01 06:04:13;;;;;;;30.13;25.48;;;16.10;60.20;;;;;;5124125;27;20069;-67
2021/05/01 06:06:44;;;;;;;33.10;24.65;;;16.20;60.10;;;;;;5134035;27;20023;-67
2021/05/01 06:09:12;;;;;;;26.48;20.63;;;16.20;60.20;;;;;;5132272;27;20024;-66
2021/05/01 06:11:39;;;;;;;28.35;23.15;;;16.20;60.60;;;;;;5122514;27;20424;-67
2021/05/01 06:14:05;;;;;;;27.83;23.38;;;16.30;60.60;;;;;;5133864;27;20069;-67
2021/05/01 06:16:31;;;;;;;27.13;21.73;;;16.40;60.10;;;;;;5116567;27;20032;-67
2021/05/01 06:18:58;;;;;;;27.05;22.30;;;16.40;60.20;;;;;;5113158;28;20524;-67
2021/05/01 06:21:24;;;;;;;30.00;24.88;;;16.40;60.10;;;;;;5113287;28;20031;-68
2021/05/01 06:23:49;;;;;;;29.63;23.35;;;16.40;59.50;;;;;;5113136;28;20039;-67
2021/05/01 06:26:15;;;;;;;28.30;23.08;;;16.40;59.50;;;;;;5131675;27;20472;-67
2021/05/01 06:28:42;;;;;;;32.15;23.48;;;16.40;59.10;;;;;;5133644;27;20029;-67
2021/05/01 06:31:08;;;;;;;28.85;22.83;;;16.30;59.00;;;;;;5133602;27;20082;-67
2021/05/01 06:33:41;;;;;;;29.23;23.20;;;16.30;59.90;;;;;;5133696;27;20106;-67
2021/05/01 06:36:11;;;;;;;33.10;24.73;;;16.40;60.00;;;;;;5134113;27;20420;-67
2021/05/01 06:38:38;;;;;;;29.70;23.13;;;16.40;59.70;;;;;;5133468;27;20482;-67
2021/05/01 06:41:08;;;;;;;31.23;24.10;;;16.40;59.50;;;;;;5133120;27;20015;-67
2021/05/01 06:44:11;;;;;;;29.75;22.20;;;16.40;59.30;;;;;;5133539;27;20035;-67
2021/05/01 06:46:40;;;;;;;26.92;21.52;;;16.40;59.90;;;;;;5120986;27;20060;-68
2021/05/01 06:49:12;;;;;;;28.55;23.33;;;16.50;60.20;;;;;;5112759;28;20361;-67
2021/05/01 06:51:39;;;;;;;27.17;21.67;;;16.50;60.10;;;;;;5112521;28;20043;-68
2021/05/01 06:54:09;;;;;;;28.60;22.15;;;16.50;60.10;;;;;;5112944;28;20016;-68
2021/05/01 06:56:43;;;;;;;32.22;22.17;;;16.60;60.60;;;;;;5112818;28;20507;-69
2021/05/01 06:59:11;;;;;;;30.85;23.25;;;16.70;60.30;;;;;;5112793;28;20032;-69
2021/05/01 07:01:40;;;;;;;33.08;23.55;;;16.80;60.40;;;;;;5112669;28;20026;-68
2021/05/01 07:04:08;;;;;;;29.33;24.52;;;16.90;60.00;;;;;;5112640;28;20061;-67
2021/05/01 07:06:36;;;;;;;31.00;23.67;;;17.00;60.40;;;;;;5112647;28;20065;-67
2021/05/01 07:09:04;;;;;;;26.92;21.55;;;17.10;60.00;;;;;;5112420;28;20012;-68
2021/05/01 07:11:30;;;;;;;32.45;23.20;;;17.20;60.00;;;;;;5121145;28;20419;-68
2021/05/01 07:13:56;;;;;;;34.05;23.75;;;17.30;59.80;;;;;;5133041;27;20019;-68
2021/05/01 07:16:22;;;;;;;34.20;25.13;;;17.40;59.20;;;;;;5131792;28;20059;-68
2021/05/01 07:18:48;;;;;;;30.40;23.05;;;17.50;58.20;;;;;;5133639;27;20049;-67
2021/05/01 07:21:15;;;;;;;32.70;23.75;;;17.60;58.20;;;;;;5133586;27;20076;-68
2021/05/01 07:23:41;;;;;;;31.17;24.52;;;17.70;58.20;;;;;;5133702;27;20050;-69
2021/05/01 07:26:10;;;;;;;32.35;23.98;;;17.80;58.60;;;;;;5133563;27;20068;-68
2021/05/01 07:28:38;;;;;;;29.33;22.08;;;17.80;57.80;;;;;;5133735;27;20053;-67
2021/05/01 07:31:09;;;;;;;30.05;22.02;;;17.90;58.10;;;;;;5133796;27;20035;-68
2021/05/01 07:33:50;;;;;;;30.95;22.52;;;18.10;58.60;;;;;;5133680;27;20029;-68
2021/05/01 07:36:25;;;;;;;31.55;24.27;;;18.20;58.00;;;;;;5133652;27;20070;-69
2021/05/01 07:38:52;;;;;;;32.90;23.73;;;18.30;58.00;;;;;;5136258;27;20027;-68
2021/05/01 07:41:24;;;;;;;30.23;22.60;;;18.40;57.00;;;;;;5137289;27;20057;-68
2021/05/01 07:43:52;;;;;;;30.30;23.10;;;18.40;56.50;;;;;;5137711;27;20384;-69
2021/05/01 07:46:22;;;;;;;29.90;21.50;;;18.50;56.80;;;;;;5137422;27;20023;-68
2021/05/01 07:48:49;;;;;;;27.35;20.58;;;18.60;58.20;;;;;;5124396;27;20353;-68
2021/05/01 07:51:15;;;;;;;29.33;22.35;;;18.70;58.50;;;;;;5135699;27;20071;-69
2021/05/01 07:53:44;;;;;;;27.75;22.10;;;18.80;57.30;;;;;;5135705;27;20424;-68
2021/05/01 07:56:10;;;;;;;31.13;22.00;;;18.80;56.10;;;;;;5137255;27;20076;-71
2021/05/01 07:58:36;;;;;;;34.42;24.48;;;18.80;55.50;;;;;;5137222;27;20102;-69
2021/05/01 08:01:02;;;;;;;28.13;20.95;;;18.80;55.40;;;;;;5137005;27;20092;-69
2021/05/01 08:03:28;;;;;;;28.10;20.80;;;18.80;55.90;;;;;;5130758;27;20031;-69
2021/05/01 08:05:54;;;;;;;31.33;22.45;;;18.80;55.30;;;;;;5116592;28;20365;-70
2021/05/01 08:08:20;;;;;;;25.15;18.80;;;18.90;55.50;;;;;;5116614;28;20032;-68
2021/05/01 08:10:46;;;;;;;26.60;20.58;;;19.00;57.00;;;;;;5120888;27;20042;-69
2021/05/01 08:13:12;;;;;;;24.02;18.70;;;19.10;55.40;;;;;;5135140;27;20540;-70
2021/05/01 08:15:38;;;;;;;26.63;20.48;;;19.20;57.20;;;;;;5131017;27;20380;-70
2021/05/01 08:18:06;;;;;;;26.65;20.20;;;19.40;55.00;;;;;;5126735;27;20029;-68
2021/05/01 08:20:33;;;;;;;25.17;19.77;;;19.40;55.40;;;;;;5135591;27;20101;-69
2021/05/01 08:22:59;;;;;;;26.45;19.55;;;19.40;54.90;;;;;;5131452;27;20468;-69
2021/05/01 08:25:25;;;;;;;29.23;22.63;;;19.40;55.20;;;;;;5116567;27;20027;-68
2021/05/01 08:27:52;;;;;;;26.40;21.27;;;19.40;53.90;;;;;;5124720;27;20023;-70
2021/05/01 08:30:18;;;;;;;27.63;21.63;;;19.20;53.40;;;;;;5115772;27;20023;-69
2021/05/01 08:32:45;;;;;;;25.92;20.63;;;19.20;53.70;;;;;;5114218;28;20110;-70
2021/05/01 08:35:14;;;;;;;25.15;20.00;;;19.00;53.00;;;;;;5115691;28;20319;-70
2021/05/01 08:37:40;;;;;;;22.48;19.02;;;18.90;53.10;;;;;;5115654;28;20063;-69
2021/05/01 08:40:07;;;;;;;29.02;20.13;;;18.80;53.90;;;;;;5115850;27;20034;-70
2021/05/01 08:42:33;;;;;;;24.50;18.50;;;18.70;54.30;;;;;;5115925;27;20046;-69
2021/05/01 08:45:06;;;;;;;22.48;17.92;;;18.70;55.50;;;;;;5136056;27;20394;-69
2021/05/01 08:47:35;;;;;;;23.05;18.65;;;18.70;56.20;;;;;;5136321;27;20031;-69
2021/05/01 08:50:06;;;;;;;23.65;19.17;;;18.70;56.50;;;;;;5128224;27;20020;-69
2021/05/01 08:52:34;;;;;;;22.40;18.65;;;18.70;57.00;;;;;;5119423;27;20032;-69
2021/05/01 08:55:00;;;;;;;23.70;18.95;;;18.70;57.20;;;;;;5130208;27;20022;-70
2021/05/01 08:57:28;;;;;;;25.20;20.08;;;18.80;57.20;;;;;;5135869;27;20031;-69
2021/05/01 08:59:54;;;;;;;27.58;20.63;;;18.80;57.00;;;;;;5136031;27;20023;-69
2021/05/01 09:02:23;;;;;;;26.95;20.52;;;18.80;56.50;;;;;;5135957;27;20106;-69
2021/05/01 09:04:51;;;;;;;26.17;20.05;;;18.80;56.00;;;;;;5135899;27;20026;-70
2021/05/01 09:07:17;;;;;;;28.23;20.70;;;18.80;55.40;;;;;;5135725;27;20026;-72
2021/05/01 09:09:58;;;;;;;31.73;21.30;;;18.70;54.60;;;;;;5135686;27;20015;-70
2021/05/01 09:12:37;;;;;;;26.13;20.13;;;18.70;54.80;;;;;;5135418;27;20561;-71
2021/05/01 09:15:05;;;;;;;27.95;20.63;;;18.70;55.50;;;;;;5129988;27;20023;-74
2021/05/01 09:17:31;;;;;;;25.58;19.50;;;18.70;55.80;;;;;;5131588;27;20023;-75
2021/05/01 09:20:11;;;;;;;28.83;20.98;;;18.80;56.30;;;;;;5134895;27;20030;-75
2021/05/01 09:22:52;;;;;;;29.27;20.63;;;18.90;55.40;;;;;;5122972;27;20042;-74
2021/05/01 09:25:19;;;;;;;29.50;22.08;;;18.90;55.50;;;;;;5121054;27;20023;-74
2021/05/01 09:28:06;;;;;;;35.22;22.92;;;19.10;55.70;;;;;;5128021;27;20028;-78
2021/05/01 09:30:34;;;;;;;30.30;22.25;;;19.10;56.10;;;;;;5134955;27;20015;-79
2021/05/01 09:33:20;;;;;;;32.13;23.77;;;19.20;55.00;;;;;;5130531;27;20019;-77
2021/05/01 09:35:57;;;;;;;32.47;22.55;;;19.30;54.50;;;;;;5132527;27;20067;-73
2021/05/01 09:38:23;;;;;;;32.30;24.40;;;19.30;54.70;;;;;;5135044;27;20030;-72
2021/05/01 09:40:50;;;;;;;32.28;24.25;;;19.40;54.80;;;;;;5134868;27;20019;-70
2021/05/01 09:43:16;;;;;;;33.90;25.85;;;19.40;54.10;;;;;;5119851;27;20059;-70
2021/05/01 09:45:43;;;;;;;28.27;22.05;;;19.40;53.50;;;;;;5127090;27;20480;-68
2021/05/01 09:48:13;;;;;;;31.27;24.55;;;19.50;54.10;;;;;;5115482;27;20081;-68
2021/05/01 09:50:40;;;;;;;29.10;21.20;;;19.60;53.50;;;;;;5119034;27;20023;-69
2021/05/01 09:53:10;;;;;;;27.67;21.92;;;19.60;54.50;;;;;;5126866;27;20124;-67
2021/05/01 09:55:48;;;;;;;27.85;22.75;;;19.70;54.80;;;;;;5130638;27;20357;-71
2021/05/01 09:58:26;;;;;;;27.15;21.60;;;19.80;54.50;;;;;;5113695;27;20098;-73
2021/05/01 10:01:10;;;;;;;27.23;21.67;;;19.80;54.50;;;;;;5117688;27;20015;-67
2021/05/01 10:03:37;;;;;;;24.50;19.35;;;19.90;54.40;;;;;;5111409;27;20054;-67
2021/05/01 10:06:06;;;;;;;24.27;18.88;;;19.90;53.30;;;;;;5116525;27;20453;-67
2021/05/01 10:08:42;;;;;;;22.83;18.63;;;20.00;52.60;;;;;;5129038;27;20023;-67
2021/05/01 10:11:14;;;;;;;25.50;18.65;;;20.00;52.20;;;;;;5131490;27;20384;-66
2021/05/01 10:13:53;;;;;;;24.25;18.85;;;20.10;52.40;;;;;;5124198;27;20384;-71
2021/05/01 10:16:20;;;;;;;30.75;19.58;;;20.20;52.70;;;;;;5133826;27;20023;-70
2021/05/01 10:19:07;;;;;;;27.48;18.85;;;20.40;52.90;;;;;;5128534;27;20023;-70
2021/05/01 10:21:35;;;;;;;24.67;17.90;;;20.60;50.70;;;;;;5126085;27;20070;-70
2021/05/01 10:24:01;;;;;;;22.92;17.05;;;20.80;50.80;;;;;;5130363;27;20023;-70
2021/05/01 10:26:42;;;;;;;20.55;16.58;;;20.90;52.00;;;;;;5133174;27;20384;-70
2021/05/01 10:29:08;;;;;;;22.88;17.50;;;21.00;50.50;;;;;;5131777;27;20024;-70
2021/05/01 10:31:53;;;;;;;24.27;17.95;;;21.10;49.80;;;;;;5130149;27;20075;-70
2021/05/01 10:34:22;;;;;;;22.27;17.00;;;21.10;47.30;;;;;;5125816;27;20397;-70
2021/05/01 10:36:52;;;;;;;25.25;18.42;;;21.10;47.80;;;;;;5131393;27;20054;-70
2021/05/01 10:39:17;;;;;;;23.27;16.83;;;21.10;47.40;;;;;;5112769;28;20054;-69
2021/05/01 10:41:54;;;;;;;24.35;17.10;;;21.00;46.70;;;;;;5126273;27;20386;-70
2021/05/01 10:44:20;;;;;;;23.83;16.50;;;20.90;47.70;;;;;;5114694;27;20035;-70
2021/05/01 10:46:46;;;;;;;24.17;16.45;;;20.90;47.60;;;;;;5112834;27;20385;-69
2021/05/01 10:49:15;;;;;;;22.63;15.38;;;21.00;47.70;;;;;;5120850;27;20015;-70
2021/05/01 10:51:44;;;;;;;19.08;14.38;;;21.00;46.70;;;;;;5127005;27;20031;-70
2021/05/01 10:54:15;;;;;;;17.90;13.05;;;21.00;47.20;;;;;;5128273;27;20098;-72
2021/05/01 10:56:46;;;;;;;17.33;12.55;;;21.00;47.50;;;;;;5121148;27;20069;-72
2021/05/01 10:59:18;;;;;;;21.48;13.77;;;21.10;47.60;;;;;;5124727;27;20102;-70
2021/05/01 11:01:48;;;;;;;15.30;11.63;;;21.20;47.70;;;;;;5128506;27;20023;-70
2021/05/01 11:04:32;;;;;;;15.77;11.45;;;21.30;49.30;;;;;;5131016;27;20102;-71
2021/05/01 11:07:07;;;;;;;15.03;11.13;;;21.50;48.30;;;;;;5126032;27;20039;-70
2021/05/01 11:09:48;;;;;;;11.90;9.95;;;21.50;47.70;;;;;;5114163;28;20273;-69
2021/05/01 11:12:15;;;;;;;16.40;10.25;;;21.70;49.20;;;;;;5130057;27;20019;-69
2021/05/01 11:14:52;;;;;;;14.35;9.85;;;21.80;48.30;;;;;;5139569;27;20047;-69
2021/05/01 11:17:47;;;;;;;14.38;10.73;;;21.90;48.50;;;;;;5124482;27;20038;-70
2021/05/01 11:20:16;;;;;;;13.07;9.32;;;22.00;47.20;;;;;;5134275;27;20027;-70
2021/05/01 11:22:44;;;;;;;13.38;9.93;;;22.10;48.70;;;;;;5128312;27;20023;-70
2021/05/01 11:25:12;;;;;;;12.60;9.25;;;22.20;47.80;;;;;;5138303;27;20019;-69
2021/05/01 11:27:43;;;;;;;10.48;8.35;;;22.20;48.10;;;;;;5138900;27;20070;-70
2021/05/01 11:30:11;;;;;;;11.75;9.27;;;22.30;47.40;;;;;;5137121;27;20023;-70
2021/05/01 11:32:37;;;;;;;10.50;7.93;;;22.40;47.50;;;;;;5121350;27;20092;-69
2021/05/01 11:35:04;;;;;;;9.73;8.32;;;22.40;48.10;;;;;;5120771;27;20024;-72
2021/05/01 11:37:40;;;;;;;10.98;8.32;;;22.50;48.70;;;;;;5139344;27;20080;-71
2021/05/01 11:40:08;;;;;;;9.95;7.20;;;22.60;47.00;;;;;;5133408;27;20020;-72
2021/05/01 11:42:37;;;;;;;14.20;8.82;;;22.70;48.20;;;;;;5139796;27;20019;-69
2021/05/01 11:45:08;;;;;;;12.98;9.48;;;22.80;44.80;;;;;;5130732;27;20028;-70
2021/05/01 11:47:36;;;;;;;11.02;7.65;;;22.80;44.20;;;;;;5130848;27;20050;-67
2021/05/01 11:50:03;;;;;;;10.48;7.35;;;22.90;45.80;;;;;;5132483;27;20022;-70
2021/05/01 11:52:42;;;;;;;8.52;6.35;;;22.90;46.60;;;;;;5132315;27;20227;-68
2021/05/01 11:55:18;;;;;;;12.57;7.38;;;23.00;46.70;;;;;;5132837;27;20031;-66
2021/05/01 11:57:51;;;;;;;8.75;6.50;;;23.00;45.10;;;;;;5135905;27;20039;-74
2021/05/01 12:00:40;;;;;;;9.50;6.37;;;23.00;45.60;;;;;;5129651;27;20060;-74
2021/05/01 12:03:21;;;;;;;7.78;5.63;;;23.00;45.20;;;;;;5130790;27;20552;-74
2021/05/01 12:06:13;;;;;;;8.20;5.90;;;23.10;44.70;;;;;;5124115;27;20099;-74
2021/05/01 12:08:39;;;;;;;8.52;6.10;;;23.10;44.50;;;;;;5127689;27;20039;-74
2021/05/01 12:11:07;;;;;;;7.63;5.93;;;23.10;44.90;;;;;;5137170;27;20376;-74
2021/05/01 12:13:38;;;;;;;5.35;4.53;;;23.20;45.00;;;;;;5136217;27;20024;-75
2021/05/01 12:16:15;;;;;;;8.15;5.60;;;23.20;45.40;;;;;;5128228;27;20019;-74
2021/05/01 12:18:54;;;;;;;7.05;5.20;;;23.40;45.70;;;;;;5129043;27;20407;-74
2021/05/01 12:21:27;;;;;;;5.55;4.45;;;23.50;45.60;;;;;;5138003;27;20016;-74
2021/05/01 12:23:59;;;;;;;7.22;5.82;;;23.70;45.50;;;;;;5136920;27;20019;-74
2021/05/01 12:26:31;;;;;;;5.38;4.78;;;23.90;42.60;;;;;;5127235;27;20039;-74
2021/05/01 12:29:23;;;;;;;7.75;4.80;;;24.00;43.30;;;;;;5131621;27;20019;-74
2021/05/01 12:31:53;;;;;;;5.70;4.93;;;24.10;42.90;;;;;;5127249;27;20023;-74
2021/05/01 12:34:20;;;;;;;6.00;5.15;;;24.30;42.30;;;;;;5132363;27;20022;-74